New Ross, Canada
Current Conditions -  °F | °C
As of 11:00 PM on Sunday 21 Dec 2014 (Local Time) from CYZX Reporting Station
Overcast Overcast  
Wind Chill: 23°   Ceiling: 2800
Heat Index: 30°   Visibility: 15mi
Dew Point: 27°   Wind: 8mph
Humidity: 86%   Direction: 60°ENE
Pressure: 30.38"   Gusts: NA
Location:  44.73°N, 64.45°W
Report Text: CYZX 220300Z 06007KT 15SM OVC028 M01/M03 A3038 RMK SC8 WNDY HILL 09006KT SLP289
Loading
Personal Weather Stations






























Interactive Weather Map New forecast layout! Learn more

10-Day Weather Forecast

Advertisements
Track Severe Weather on mobile